createdAt,value
2023-05-06T00:00:25.592Z,90.0389
2023-05-06T00:01:26.583Z,89.9563
2023-05-06T00:02:27.590Z,89.8993
2023-05-06T00:03:28.958Z,89.9449
2023-05-06T00:04:29.219Z,89.9876
2023-05-06T00:05:29.371Z,90.1346
2023-05-06T00:06:29.910Z,90.0733
2023-05-06T00:07:30.720Z,90.0346
2023-05-06T00:08:31.481Z,89.8793
2023-05-06T00:09:31.863Z,89.8017
2023-05-06T00:10:32.518Z,89.8327
2023-05-06T00:11:33.122Z,89.7837
2023-05-06T00:12:33.866Z,89.8972
2023-05-06T00:13:34.571Z,89.9884
2023-05-06T00:14:35.376Z,90.0618
2023-05-06T00:15:36.267Z,90.0118
2023-05-06T00:16:37.231Z,90.1409
2023-05-06T00:17:38.488Z,90.1494
2023-05-06T00:18:39.270Z,90.1474
2023-05-06T00:19:40.126Z,90.1065
2023-05-06T00:20:40.743Z,90.0464
2023-05-06T00:21:41.130Z,89.8858
2023-05-06T00:22:41.734Z,89.6966
2023-05-06T00:23:42.541Z,89.6692
2023-05-06T00:24:43.543Z,89.7281
2023-05-06T00:25:43.759Z,89.7682
2023-05-06T00:26:44.115Z,89.7968
2023-05-06T00:27:45.115Z,89.8175
2023-05-06T00:28:45.410Z,89.7496
2023-05-06T00:29:45.935Z,89.6332
2023-05-06T00:30:46.742Z,89.4919
2023-05-06T00:31:47.386Z,89.4361
2023-05-06T00:32:47.798Z,89.2113
2023-05-06T00:33:48.444Z,89.0716
2023-05-06T00:34:49.000Z,88.8156
2023-05-06T00:35:49.677Z,88.7120
2023-05-06T00:36:50.270Z,88.6550
2023-05-06T00:37:51.198Z,88.5968
2023-05-06T00:38:51.613Z,88.6016
2023-05-06T00:39:52.370Z,88.6040
2023-05-06T00:40:53.073Z,88.8229
2023-05-06T00:41:53.780Z,88.8446
2023-05-06T00:42:54.636Z,88.7410
2023-05-06T00:43:55.063Z,88.7394
2023-05-06T00:44:55.596Z,88.7417
2023-05-06T00:45:55.606Z,88.7737
2023-05-06T00:46:56.247Z,89.0176
2023-05-06T00:47:56.961Z,89.1168
2023-05-06T00:48:57.496Z,89.0906
2023-05-06T00:49:58.040Z,89.2106
2023-05-06T00:50:58.575Z,89.2653
2023-05-06T00:51:59.039Z,89.3773
2023-05-06T00:52:59.786Z,89.3664
2023-05-06T00:54:00.470Z,89.2897
2023-05-06T00:55:01.079Z,89.1888
2023-05-06T00:56:01.762Z,89.0076
2023-05-06T00:57:02.458Z,88.9784
2023-05-06T00:58:03.441Z,89.0021
2023-05-06T00:59:03.956Z,89.0089
2023-05-06T01:00:04.669Z,88.8854
2023-05-06T01:01:05.726Z,88.9402
2023-05-06T01:02:06.675Z,88.8634
2023-05-06T01:03:07.748Z,88.8825
2023-05-06T01:04:08.398Z,89.1136
2023-05-06T01:05:09.263Z,89.1746
2023-05-06T01:06:09.850Z,89.2414
2023-05-06T01:07:10.405Z,89.2577
2023-05-06T01:08:11.178Z,89.3218
2023-05-06T01:09:12.046Z,89.4816
2023-05-06T01:10:12.739Z,89.5416
2023-05-06T01:11:15.625Z,89.6944
2023-05-06T01:12:13.989Z,89.9368
2023-05-06T01:13:15.184Z,90.1157
2023-05-06T01:14:16.073Z,90.2103
2023-05-06T01:15:16.251Z,90.2888
2023-05-06T01:16:17.350Z,90.2244
2023-05-06T01:17:18.461Z,90.2539
2023-05-06T01:18:18.709Z,90.1635
2023-05-06T01:19:19.406Z,90.1578
2023-05-06T01:20:20.244Z,90.0892
2023-05-06T01:21:20.965Z,90.1197
2023-05-06T01:22:21.835Z,90.1861
2023-05-06T01:23:22.586Z,90.0186
2023-05-06T01:24:23.476Z,89.8267
2023-05-06T01:25:23.790Z,89.7003
2023-05-06T01:26:24.618Z,89.4888
2023-05-06T01:27:25.569Z,89.4196
2023-05-06T01:28:26.496Z,89.4118
2023-05-06T01:29:27.354Z,89.5475
2023-05-06T01:30:28.502Z,89.6333
2023-05-06T01:31:29.407Z,89.6333
2023-05-06T01:32:30.480Z,89.6092
2023-05-06T01:33:31.568Z,89.6352
2023-05-06T01:34:32.508Z,89.6985
2023-05-06T01:35:32.636Z,89.7533
2023-05-06T01:36:33.360Z,89.9151
2023-05-06T01:37:34.511Z,89.8812
2023-05-06T01:38:35.238Z,89.8893
2023-05-06T01:39:36.063Z,89.9258
2023-05-06T01:40:36.973Z,89.8482
2023-05-06T01:41:37.616Z,89.8576
2023-05-06T01:42:38.564Z,89.8712
2023-05-06T01:43:39.236Z,90.1057
2023-05-06T01:44:40.224Z,90.2888
2023-05-06T01:45:41.110Z,90.3350
2023-05-06T01:46:42.215Z,90.3461
2023-05-06T01:47:43.469Z,90.4698
2023-05-06T01:48:44.335Z,90.5967
2023-05-06T01:49:45.271Z,90.6030
2023-05-06T01:50:46.287Z,90.6397
2023-05-06T01:51:47.385Z,90.7971
2023-05-06T01:52:48.280Z,91.0780
2023-05-06T01:53:49.059Z,91.1253
2023-05-06T01:54:50.000Z,91.0645
2023-05-06T01:55:50.937Z,91.1421
2023-05-06T01:56:51.763Z,91.1937
2023-05-06T01:57:52.687Z,91.2013
2023-05-06T01:58:53.383Z,91.1987
2023-05-06T01:59:54.248Z,91.1512
2023-05-06T02:00:55.128Z,91.1131
2023-05-06T02:01:56.062Z,91.1053
2023-05-06T02:02:56.979Z,91.1012
2023-05-06T02:03:57.567Z,91.1997
2023-05-06T02:04:58.783Z,91.2549
2023-05-06T02:05:59.482Z,91.2363
2023-05-06T02:07:00.312Z,91.2870
2023-05-06T02:08:01.240Z,91.3128
2023-05-06T02:09:02.051Z,91.2073
2023-05-06T02:10:02.971Z,91.1564
2023-05-06T02:11:03.629Z,91.1845
2023-05-06T02:12:04.455Z,91.1712
2023-05-06T02:13:05.419Z,91.1606
2023-05-06T02:14:06.288Z,91.1497
2023-05-06T02:15:07.322Z,91.1863
2023-05-06T02:16:08.423Z,91.2010
2023-05-06T02:17:09.677Z,91.2684
2023-05-06T02:18:10.807Z,91.3612
2023-05-06T02:19:11.513Z,91.3440
2023-05-06T02:20:12.407Z,91.3332
2023-05-06T02:21:13.119Z,91.3433
2023-05-06T02:22:13.953Z,91.4471
2023-05-06T02:23:14.624Z,91.6274
2023-05-06T02:24:15.624Z,91.6596
2023-05-06T02:25:16.508Z,91.7348
2023-05-06T02:26:17.322Z,91.7044
2023-05-06T02:27:18.317Z,91.6124
2023-05-06T02:28:19.258Z,91.6766
2023-05-06T02:29:20.177Z,91.7571
2023-05-06T02:30:21.007Z,91.7184
2023-05-06T02:31:21.890Z,91.6823
2023-05-06T02:32:21.990Z,91.6408
2023-05-06T02:33:22.750Z,91.6669
2023-05-06T02:34:23.437Z,91.7176
2023-05-06T02:35:24.045Z,91.7970
2023-05-06T02:36:24.836Z,91.8120
2023-05-06T02:37:25.291Z,91.7914
2023-05-06T02:38:26.017Z,91.8072
2023-05-06T02:39:26.511Z,91.8063
2023-05-06T02:40:27.222Z,91.7564
2023-05-06T02:41:28.130Z,91.6636
2023-05-06T02:42:29.077Z,91.6142
2023-05-06T02:43:30.275Z,91.5653
2023-05-06T02:44:30.384Z,91.5732
2023-05-06T02:45:31.350Z,91.5874
2023-05-06T02:46:32.100Z,91.5473
2023-05-06T02:47:33.041Z,91.4595
2023-05-06T02:48:33.955Z,91.4887
2023-05-06T02:49:34.878Z,91.5238
2023-05-06T02:50:35.809Z,91.5533
2023-05-06T02:51:36.570Z,91.6293
2023-05-06T02:52:37.494Z,91.6474
2023-05-06T02:53:38.224Z,91.6432
2023-05-06T02:54:39.105Z,91.6448
2023-05-06T02:55:40.048Z,91.7204
2023-05-06T02:56:40.764Z,91.7044
2023-05-06T02:57:41.716Z,91.6596
2023-05-06T02:58:42.437Z,91.6699
2023-05-06T02:59:43.395Z,91.6359
2023-05-06T03:00:44.387Z,91.6788
2023-05-06T03:01:45.381Z,91.6862
2023-05-06T03:02:46.322Z,91.7117
2023-05-06T03:03:47.160Z,91.7443
2023-05-06T03:04:48.257Z,91.7443
2023-05-06T03:05:49.364Z,91.7866
2023-05-06T03:06:50.110Z,91.8282
2023-05-06T03:07:51.031Z,91.7911
2023-05-06T03:08:51.802Z,91.7897
2023-05-06T03:09:52.685Z,91.7859
2023-05-06T03:10:53.473Z,91.8020
2023-05-06T03:11:54.436Z,91.8425
2023-05-06T03:12:55.363Z,91.8891
2023-05-06T03:13:56.384Z,91.8993
2023-05-06T03:14:57.459Z,91.9196
2023-05-06T03:15:58.261Z,91.9293
2023-05-06T03:16:59.368Z,91.9417
2023-05-06T03:17:59.705Z,91.9948
2023-05-06T03:19:00.675Z,91.9891
2023-05-06T03:20:01.729Z,92.0114
2023-05-06T03:21:02.527Z,91.9750
2023-05-06T03:22:03.806Z,92.0039
2023-05-06T03:23:04.674Z,92.0645
2023-05-06T03:24:05.577Z,92.1333
2023-05-06T03:25:06.512Z,92.1498
2023-05-06T03:26:06.598Z,92.1702
2023-05-06T03:27:07.640Z,92.1265
2023-05-06T03:28:08.607Z,92.0552
2023-05-06T03:29:09.428Z,92.0375
2023-05-06T03:30:10.517Z,92.0189
2023-05-06T03:31:11.382Z,92.0174
2023-05-06T03:32:11.536Z,92.0375
2023-05-06T03:33:12.871Z,92.1060
2023-05-06T03:34:13.741Z,92.1293
2023-05-06T03:35:14.475Z,92.1423
2023-05-06T03:36:15.270Z,92.1511
2023-05-06T03:37:16.303Z,92.2414
2023-05-06T03:38:17.196Z,92.3587
2023-05-06T03:39:18.294Z,92.4555
2023-05-06T03:40:19.264Z,92.5860
2023-05-06T03:41:19.993Z,92.6662
2023-05-06T03:42:20.724Z,92.7916
2023-05-06T03:43:21.470Z,92.9419
2023-05-06T03:44:22.461Z,93.1329
2023-05-06T03:45:23.383Z,93.2003
2023-05-06T03:46:24.390Z,93.3030
2023-05-06T03:47:25.657Z,93.3780
2023-05-06T03:48:26.759Z,93.4958
2023-05-06T03:49:27.899Z,93.6377
2023-05-06T03:50:28.978Z,93.7816
2023-05-06T03:51:29.987Z,93.9203
2023-05-06T03:52:31.021Z,94.0671
2023-05-06T03:53:31.906Z,94.1278
2023-05-06T03:54:32.883Z,94.1086
2023-05-06T03:55:33.189Z,94.0196
2023-05-06T03:56:34.016Z,94.0170
2023-05-06T03:57:35.296Z,94.0305
2023-05-06T03:58:36.338Z,94.0799
2023-05-06T03:59:37.239Z,94.1877
2023-05-06T04:00:38.355Z,94.2343
2023-05-06T04:01:39.299Z,94.2687
2023-05-06T04:02:39.653Z,94.3407
2023-05-06T04:03:40.015Z,94.4061
2023-05-06T04:04:39.976Z,94.3477
2023-05-06T04:05:41.009Z,94.3197
2023-05-06T04:06:41.947Z,94.3108
2023-05-06T04:07:42.875Z,94.2786
2023-05-06T04:08:43.744Z,94.2731
2023-05-06T04:09:44.738Z,94.3146
2023-05-06T04:10:45.857Z,94.3454
2023-05-06T04:11:45.845Z,94.3769
2023-05-06T04:12:46.881Z,94.3642
2023-05-06T04:13:46.911Z,94.3447
2023-05-06T04:14:47.922Z,94.3213
2023-05-06T04:15:48.723Z,94.2754
2023-05-06T04:16:49.780Z,94.2532
2023-05-06T04:17:50.636Z,94.2519
2023-05-06T04:18:51.687Z,94.2577
2023-05-06T04:19:52.578Z,94.2631
2023-05-06T04:20:53.444Z,94.2564
2023-05-06T04:21:54.565Z,94.2443
2023-05-06T04:22:55.389Z,94.2275
2023-05-06T04:23:56.344Z,94.2142
2023-05-06T04:24:57.416Z,94.2049
2023-05-06T04:25:58.244Z,94.1897
2023-05-06T04:26:59.190Z,94.1939
2023-05-06T04:28:00.155Z,94.1472
2023-05-06T04:29:01.111Z,94.0828
2023-05-06T04:30:02.404Z,94.0400
2023-05-06T04:31:03.187Z,93.9285
2023-05-06T04:32:04.404Z,93.8095
2023-05-06T04:33:05.525Z,93.6969
2023-05-06T04:34:05.885Z,93.5868
2023-05-06T04:35:07.117Z,93.4937
2023-05-06T04:36:08.070Z,93.4117
2023-05-06T04:37:09.173Z,93.3245
2023-05-06T04:38:09.948Z,93.3258
2023-05-06T04:39:11.027Z,93.3287
2023-05-06T04:40:12.090Z,93.2520
2023-05-06T04:41:12.956Z,93.2086
2023-05-06T04:42:14.147Z,93.2031
2023-05-06T04:43:15.082Z,93.2319
2023-05-06T04:44:16.169Z,93.2525
2023-05-06T04:45:17.242Z,93.2250
2023-05-06T04:46:18.395Z,93.2044
2023-05-06T04:47:19.513Z,93.2356
2023-05-06T04:48:20.700Z,93.2301
2023-05-06T04:49:21.829Z,93.1881
2023-05-06T04:50:22.947Z,93.2231
2023-05-06T04:51:24.006Z,93.1808
2023-05-06T04:52:24.108Z,93.0758
2023-05-06T04:53:25.575Z,93.0661
2023-05-06T04:54:26.569Z,93.1665
2023-05-06T04:55:26.986Z,93.2123
2023-05-06T04:56:27.952Z,93.2303
2023-05-06T04:57:29.067Z,93.2098
2023-05-06T04:58:30.161Z,93.2347
2023-05-06T04:59:31.137Z,93.2347
2023-05-06T05:00:32.318Z,93.2020
2023-05-06T05:01:33.561Z,93.1847
2023-05-06T05:02:33.934Z,93.1710
2023-05-06T05:03:34.686Z,93.1876
2023-05-06T05:04:34.622Z,93.2558
2023-05-06T05:05:34.684Z,93.2818
2023-05-06T05:06:35.584Z,93.2694
2023-05-06T05:07:36.743Z,93.1605
2023-05-06T05:08:37.719Z,93.1419
2023-05-06T05:09:38.984Z,93.1196
2023-05-06T05:11:39.704Z,92.9219
2023-05-06T05:12:41.044Z,92.8841
2023-05-06T05:13:40.998Z,92.8425
2023-05-06T05:14:42.148Z,92.8244
2023-05-06T05:15:42.315Z,92.7878
2023-05-06T05:16:43.636Z,92.8582
2023-05-06T05:18:44.427Z,92.9190
2023-05-06T05:19:44.625Z,92.9260
2023-05-06T05:20:45.665Z,93.2666
2023-05-06T05:21:46.825Z,93.5550
2023-05-06T05:22:47.778Z,93.6144
2023-05-06T05:23:49.014Z,93.5507
2023-05-06T05:24:50.124Z,93.2848
2023-05-06T05:25:50.813Z,93.2107
2023-05-06T05:26:51.984Z,93.1844
2023-05-06T05:27:52.926Z,92.9788
2023-05-06T05:28:54.000Z,92.7824
2023-05-06T05:29:55.167Z,92.6882
2023-05-06T05:30:56.379Z,92.6272
2023-05-06T05:31:57.518Z,92.5847
2023-05-06T05:32:59.008Z,92.6612
2023-05-06T05:33:59.021Z,92.7392
2023-05-06T05:35:00.303Z,92.7169
2023-05-06T05:36:01.300Z,92.6720
2023-05-06T05:37:02.492Z,92.4438
2023-05-06T05:38:03.532Z,92.3727
2023-05-06T05:39:04.852Z,92.3061
2023-05-06T05:40:06.021Z,92.2367
2023-05-06T05:41:07.067Z,92.1207
2023-05-06T05:42:08.376Z,92.1437
2023-05-06T05:43:09.597Z,92.1526
2023-05-06T05:44:10.764Z,92.0209
2023-05-06T05:45:11.214Z,91.8948
2023-05-06T05:46:12.280Z,91.8994
2023-05-06T05:47:12.383Z,91.8235
2023-05-06T05:48:13.671Z,91.8137
2023-05-06T05:49:14.870Z,91.8122
2023-05-06T05:50:16.155Z,91.8041
2023-05-06T05:52:16.938Z,91.7413
2023-05-06T05:53:18.166Z,91.6457
2023-05-06T05:54:18.145Z,91.4908
2023-05-06T05:55:19.454Z,91.3326
2023-05-06T05:56:20.038Z,91.3819
2023-05-06T05:57:21.097Z,91.1765
2023-05-06T05:58:22.605Z,91.0414
2023-05-06T06:00:23.566Z,90.9577
2023-05-06T06:01:23.504Z,91.0073
2023-05-06T06:02:24.556Z,91.1640
2023-05-06T06:03:25.652Z,91.1454
2023-05-06T06:04:26.710Z,91.2506
2023-05-06T06:05:27.351Z,91.4163
2023-05-06T06:06:28.661Z,91.7017
2023-05-06T06:07:29.690Z,91.7097
2023-05-06T06:08:30.885Z,91.5767
2023-05-06T06:09:32.103Z,91.4927
2023-05-06T06:10:33.154Z,91.4164
2023-05-06T06:11:34.369Z,91.4238
2023-05-06T06:12:35.411Z,91.2633
2023-05-06T06:13:35.879Z,91.1420
2023-05-06T06:14:36.993Z,90.7765
2023-05-06T06:15:38.277Z,90.6070
2023-05-06T06:16:38.762Z,90.4428
2023-05-06T06:17:38.660Z,90.2565
2023-05-06T06:18:38.850Z,90.0468
2023-05-06T06:19:39.985Z,89.6263
2023-05-06T06:20:41.252Z,89.6370
2023-05-06T06:21:42.356Z,89.7172
2023-05-06T06:22:43.426Z,89.9981
2023-05-06T06:23:44.467Z,90.1188
2023-05-06T06:24:45.595Z,90.2300
2023-05-06T06:25:45.925Z,90.3191
2023-05-06T06:26:46.941Z,90.2131
2023-05-06T06:27:48.202Z,90.0937
2023-05-06T06:28:49.523Z,89.9675
2023-05-06T06:29:50.520Z,89.9166
2023-05-06T06:30:51.845Z,89.9521
2023-05-06T06:31:51.897Z,90.0570
2023-05-06T06:32:51.932Z,90.2022
2023-05-06T06:33:53.136Z,90.0834
2023-05-06T06:34:54.442Z,90.1687
2023-05-06T06:35:54.632Z,90.2448
2023-05-06T06:36:55.853Z,90.2786
2023-05-06T06:37:57.116Z,90.0599
2023-05-06T06:38:58.360Z,89.9788
2023-05-06T06:39:58.172Z,90.0425
2023-05-06T06:40:59.418Z,90.1987
2023-05-06T06:42:00.616Z,90.1637
2023-05-06T06:43:01.644Z,90.0523
2023-05-06T06:44:02.793Z,89.8620
2023-05-06T06:45:04.075Z,89.6794
2023-05-06T06:46:05.239Z,89.6190
2023-05-06T06:47:06.551Z,89.3696
2023-05-06T06:48:06.677Z,89.1699
2023-05-06T06:49:06.708Z,89.2395
2023-05-06T06:50:07.737Z,89.2992
2023-05-06T06:52:08.582Z,89.1911
2023-05-06T06:53:09.908Z,88.4898
2023-05-06T06:54:11.102Z,88.2370
2023-05-06T06:55:11.696Z,88.4041
2023-05-06T06:56:11.624Z,88.5266
2023-05-06T06:57:11.611Z,87.9408
2023-05-06T06:58:12.666Z,87.6259
2023-05-06T06:59:14.040Z,88.0363
2023-05-06T07:00:15.052Z,87.8250
2023-05-06T07:03:17.628Z,87.3023
2023-05-06T07:04:18.933Z,87.1442
2023-05-06T07:05:19.941Z,87.2557
2023-05-06T07:06:20.790Z,87.5982
2023-05-06T07:07:21.131Z,88.0656
2023-05-06T07:08:21.659Z,87.7246
2023-05-06T07:09:22.401Z,87.5447
2023-05-06T07:10:22.668Z,87.4880
2023-05-06T07:11:23.041Z,87.3351
2023-05-06T07:12:23.649Z,87.0814
2023-05-06T07:13:24.469Z,87.3326
2023-05-06T07:14:25.224Z,87.4284
2023-05-06T07:16:25.796Z,87.4967
2023-05-06T07:17:26.150Z,87.1571
2023-05-06T07:18:26.106Z,86.7695
2023-05-06T07:19:26.279Z,87.1777
2023-05-06T07:20:27.329Z,87.1674
2023-05-06T07:21:28.459Z,86.7234
2023-05-06T07:22:28.616Z,86.3535
2023-05-06T07:23:31.897Z,85.7642
2023-05-06T07:24:30.885Z,85.5194
2023-05-06T07:25:32.059Z,85.3023
2023-05-06T07:26:33.414Z,85.2457
2023-05-06T07:27:34.711Z,85.5239
2023-05-06T07:28:35.941Z,85.4091
2023-05-06T07:29:36.105Z,84.7527
2023-05-06T07:30:37.438Z,85.0182
2023-05-06T07:31:37.768Z,85.3222
2023-05-06T07:32:38.927Z,85.3864
2023-05-06T07:33:40.252Z,85.4996
2023-05-06T07:34:41.359Z,85.4976
2023-05-06T07:35:41.525Z,85.0950
2023-05-06T07:36:42.764Z,85.0027
2023-05-06T07:37:43.763Z,84.7281
2023-05-06T07:38:44.800Z,84.5674
2023-05-06T07:39:45.660Z,84.4968
2023-05-06T07:40:46.822Z,84.8710
2023-05-06T07:41:47.349Z,85.3217
2023-05-06T07:42:48.253Z,85.2134
2023-05-06T07:43:48.416Z,85.0440
2023-05-06T07:44:49.208Z,85.2588
2023-05-06T07:45:50.200Z,85.2019
2023-05-06T07:46:51.244Z,85.0024
2023-05-06T07:47:51.077Z,85.0947
2023-05-06T07:48:51.864Z,84.9987
2023-05-06T07:49:52.597Z,84.8200
2023-05-06T07:50:53.018Z,84.4357
2023-05-06T07:51:54.902Z,84.7138
2023-05-06T07:52:54.995Z,84.6566
2023-05-06T07:53:55.624Z,84.6658
2023-05-06T07:54:56.606Z,84.2941
2023-05-06T07:55:56.779Z,83.9011
2023-05-06T07:56:57.226Z,83.9270
2023-05-06T07:57:58.506Z,84.0336
2023-05-06T07:58:59.778Z,84.6255
2023-05-06T07:59:59.982Z,84.4269
2023-05-06T08:01:01.282Z,83.7818
2023-05-06T08:02:02.580Z,83.6012
2023-05-06T08:03:04.060Z,83.5075
2023-05-06T08:04:04.152Z,83.7869
2023-05-06T08:05:04.913Z,83.6705
2023-05-06T08:07:12.970Z,82.9272
2023-05-06T08:08:14.214Z,82.2936
2023-05-06T08:09:22.241Z,82.0746
2023-05-06T08:10:15.798Z,82.3977
2023-05-06T08:11:18.823Z,82.3614
2023-05-06T08:12:17.599Z,82.1185
2023-05-06T08:13:18.900Z,81.8386
2023-05-06T08:14:20.137Z,81.1663
2023-05-06T08:15:20.129Z,80.1649
2023-05-06T08:16:22.576Z,79.8976
2023-05-06T08:17:21.800Z,79.6148
2023-05-06T08:18:23.496Z,79.8193
2023-05-06T08:19:23.469Z,79.7000
2023-05-06T08:20:23.279Z,79.9080
2023-05-06T08:21:24.153Z,79.0329
2023-05-06T08:22:25.360Z,78.1737
2023-05-06T08:23:26.412Z,77.7521
2023-05-06T08:24:27.292Z,77.4777
2023-05-06T08:25:27.416Z,77.0403
2023-05-06T08:26:28.509Z,76.8076
2023-05-06T08:27:29.298Z,76.4939
2023-05-06T08:28:30.194Z,75.1906
2023-05-06T08:29:31.008Z,74.4260
2023-05-06T08:30:32.138Z,74.0956
2023-05-06T08:31:33.191Z,74.5049
2023-05-06T08:32:33.300Z,74.4388
2023-05-06T08:33:33.512Z,74.4103
2023-05-06T08:34:33.759Z,74.0440
2023-05-06T08:35:34.010Z,73.8693
2023-05-06T08:36:34.831Z,74.2768
2023-05-06T08:37:35.906Z,74.5316
2023-05-06T08:38:36.809Z,75.1825
2023-05-06T08:39:37.822Z,75.9493
2023-05-06T08:40:38.685Z,75.7225
2023-05-06T08:41:39.972Z,75.3997
2023-05-06T08:42:41.122Z,75.4904
2023-05-06T08:43:42.183Z,75.3817
2023-05-06T08:44:43.213Z,75.6846
2023-05-06T08:45:44.163Z,75.6225
2023-05-06T08:46:44.451Z,75.4461
2023-05-06T08:47:45.482Z,75.4916
2023-05-06T08:48:46.320Z,75.6516
2023-05-06T08:49:47.441Z,76.0315
2023-05-06T08:50:48.468Z,75.5321
2023-05-06T08:51:49.712Z,75.1159
2023-05-06T08:52:51.036Z,74.9240
2023-05-06T08:53:52.188Z,74.4680
2023-05-06T08:54:52.295Z,74.5008
2023-05-06T08:55:52.485Z,74.3684
2023-05-06T08:56:53.772Z,73.9045
2023-05-06T08:57:54.276Z,73.3271
2023-05-06T08:58:55.369Z,71.9979
2023-05-06T08:59:56.647Z,71.1799
2023-05-06T09:00:57.487Z,69.9809
2023-05-06T09:01:57.719Z,69.4727
2023-05-06T09:02:58.853Z,71.0330
2023-05-06T09:03:59.617Z,71.8569
2023-05-06T09:05:00.847Z,72.3898
2023-05-06T09:06:00.854Z,72.7094
2023-05-06T09:07:01.990Z,71.9980
2023-05-06T09:08:03.266Z,71.2204
2023-05-06T09:09:04.508Z,70.9175
2023-05-06T09:10:05.347Z,71.0065
2023-05-06T09:11:06.380Z,71.8968
2023-05-06T09:12:07.610Z,71.5958
2023-05-06T09:13:08.684Z,71.1961
2023-05-06T09:14:09.840Z,71.2255
2023-05-06T09:15:10.741Z,70.4025
2023-05-06T09:16:11.688Z,70.2763
2023-05-06T09:17:12.849Z,70.3434
2023-05-06T09:18:13.066Z,69.5749
2023-05-06T09:19:14.017Z,69.3514
2023-05-06T09:20:14.817Z,69.1279
2023-05-06T09:21:15.456Z,69.0500
2023-05-06T09:22:15.609Z,69.6733
2023-05-06T09:23:16.603Z,69.7919
2023-05-06T09:24:17.647Z,69.6227
2023-05-06T09:25:18.603Z,70.7566
2023-05-06T09:26:19.575Z,71.1027
2023-05-06T09:27:20.108Z,71.4798
2023-05-06T09:28:21.395Z,73.0438
2023-05-06T09:29:22.406Z,72.5796
2023-05-06T09:30:23.625Z,72.0100
2023-05-06T09:31:24.368Z,72.0076
2023-05-06T09:32:25.377Z,72.8247
2023-05-06T09:33:25.905Z,72.5981
2023-05-06T09:34:26.986Z,72.8526
2023-05-06T09:35:27.037Z,72.5134
2023-05-06T09:36:28.381Z,72.3519
2023-05-06T09:37:29.399Z,73.1610
2023-05-06T09:38:30.358Z,72.8850
2023-05-06T09:39:31.351Z,73.1758
2023-05-06T09:40:32.268Z,72.9832
2023-05-06T09:41:33.265Z,72.9766
2023-05-06T09:42:34.190Z,72.5158
2023-05-06T09:43:35.206Z,72.4047
2023-05-06T09:44:36.538Z,72.0037
2023-05-06T09:45:37.336Z,72.2822
2023-05-06T09:46:38.751Z,71.8122
2023-05-06T09:47:39.079Z,71.5116
2023-05-06T09:48:39.096Z,71.8409
2023-05-06T09:49:40.064Z,71.6481
2023-05-06T09:50:40.975Z,71.2671
2023-05-06T09:51:41.938Z,71.1781
2023-05-06T09:52:43.052Z,71.3248
2023-05-06T09:53:44.107Z,71.6776
2023-05-06T09:54:45.021Z,70.3779
2023-05-06T09:55:45.131Z,69.9456
2023-05-06T09:56:46.188Z,69.3942
2023-05-06T09:57:46.468Z,68.8735
2023-05-06T09:58:47.529Z,65.8567
2023-05-06T09:59:48.656Z,64.5164
2023-05-06T10:00:48.836Z,64.7726
2023-05-06T10:01:49.247Z,64.6049
2023-05-06T10:02:49.448Z,65.0521
2023-05-06T10:03:49.617Z,64.3548
2023-05-06T10:04:50.229Z,64.2570
2023-05-06T10:05:50.870Z,65.0454
2023-05-06T10:06:51.821Z,66.4864
2023-05-06T10:07:52.869Z,66.7774
2023-05-06T10:08:53.884Z,66.4237
2023-05-06T10:09:54.981Z,66.3707
2023-05-06T10:10:56.014Z,66.9826
2023-05-06T10:11:57.044Z,67.6271
2023-05-06T10:12:57.181Z,68.2333
2023-05-06T10:13:58.294Z,69.0619
2023-05-06T10:14:58.440Z,68.2162
2023-05-06T10:15:59.605Z,67.8463
2023-05-06T10:16:59.939Z,66.7987
2023-05-06T10:18:00.253Z,66.6238
2023-05-06T10:19:01.221Z,68.2226
2023-05-06T10:20:01.881Z,66.8316
2023-05-06T10:21:02.818Z,66.0217
2023-05-06T10:22:05.587Z,66.4253
2023-05-06T10:23:04.580Z,66.8504
2023-05-06T10:24:05.403Z,66.4799
2023-05-06T10:25:06.567Z,66.8091
2023-05-06T10:26:07.719Z,66.6599
2023-05-06T10:27:08.766Z,66.4917
2023-05-06T10:28:23.170Z,67.3302
2023-05-06T10:29:13.412Z,65.9003
2023-05-06T10:30:14.560Z,65.6735
2023-05-06T10:31:15.691Z,66.2337
2023-05-06T10:32:15.608Z,65.0773
2023-05-06T10:33:16.948Z,64.3151
2023-05-06T10:34:18.025Z,64.3011
2023-05-06T10:36:18.865Z,62.8731
2023-05-06T10:37:19.935Z,62.7154
2023-05-06T10:38:20.875Z,63.0572
2023-05-06T10:39:21.931Z,62.6163
2023-05-06T10:40:23.098Z,62.7922
2023-05-06T10:41:24.065Z,62.1099
2023-05-06T10:42:25.453Z,61.4413
2023-05-06T10:43:26.495Z,60.5020
2023-05-06T10:44:27.619Z,59.3227
2023-05-06T10:45:28.769Z,59.8415
2023-05-06T10:46:29.801Z,59.5996
2023-05-06T10:47:30.900Z,59.5513
2023-05-06T10:48:32.009Z,59.4161
2023-05-06T10:49:33.340Z,58.9027
2023-05-06T10:50:34.482Z,58.7072
2023-05-06T10:51:35.397Z,58.6907
2023-05-06T10:52:36.652Z,59.1520
2023-05-06T10:53:37.546Z,60.5691
2023-05-06T10:56:39.279Z,57.7788
2023-05-06T10:57:40.292Z,58.5289
2023-05-06T10:58:41.474Z,57.5483
2023-05-06T10:59:42.599Z,56.2963
2023-05-06T11:00:43.432Z,55.7622
2023-05-06T11:01:43.711Z,56.3638
2023-05-06T11:02:49.398Z,56.5754
2023-05-06T11:03:49.983Z,56.8542
2023-05-06T11:04:51.004Z,57.2039
2023-05-06T11:05:52.139Z,56.2866
2023-05-06T11:06:53.195Z,55.3897
2023-05-06T11:07:54.322Z,54.4768
2023-05-06T11:08:55.369Z,53.2737
2023-05-06T11:09:56.389Z,53.6334
2023-05-06T11:10:57.404Z,53.4823
2023-05-06T11:11:58.333Z,54.1612
2023-05-06T11:12:58.557Z,53.3430
2023-05-06T11:13:59.728Z,53.2255
2023-05-06T11:15:00.906Z,53.8101
2023-05-06T11:16:02.105Z,54.0872
2023-05-06T11:17:03.630Z,54.4879
2023-05-06T11:18:04.755Z,54.4836
2023-05-06T11:19:04.856Z,54.1421
2023-05-06T11:21:05.230Z,53.6160
2023-05-06T11:22:06.246Z,54.1627
2023-05-06T11:23:06.383Z,54.9486
2023-05-06T11:24:07.293Z,54.5355
2023-05-06T11:25:08.298Z,53.3582
2023-05-06T11:26:09.329Z,52.4379
2023-05-06T11:27:10.671Z,53.8757
2023-05-06T11:28:10.900Z,54.0941
2023-05-06T11:29:11.508Z,54.3286
2023-05-06T11:30:12.785Z,54.7275
2023-05-06T11:31:12.661Z,54.8444
2023-05-06T11:32:12.865Z,56.0327
2023-05-06T11:33:14.031Z,56.0229
2023-05-06T11:34:15.291Z,56.3674
2023-05-06T11:35:16.215Z,57.5173
2023-05-06T11:36:17.390Z,56.8334
2023-05-06T11:37:18.519Z,57.3063
2023-05-06T11:38:18.584Z,55.9564
2023-05-06T11:39:19.633Z,56.9289
2023-05-06T11:40:19.875Z,57.3865
2023-05-06T11:41:20.852Z,56.8228
2023-05-06T11:42:21.769Z,57.3584
2023-05-06T11:43:22.830Z,56.4035
2023-05-06T11:44:23.891Z,55.6089
2023-05-06T11:46:24.595Z,56.0989
2023-05-06T11:47:24.736Z,54.3842
2023-05-06T11:48:24.750Z,55.5895
2023-05-06T11:49:26.063Z,55.3441
2023-05-06T11:50:26.245Z,54.7855
2023-05-06T11:51:27.415Z,54.8314
2023-05-06T11:52:27.503Z,55.1854
2023-05-06T11:53:27.840Z,55.2641
2023-05-06T11:55:28.991Z,57.6819
2023-05-06T11:56:29.475Z,57.8117
2023-05-06T11:57:30.635Z,58.2700
2023-05-06T11:58:30.773Z,57.2564
2023-05-06T11:59:31.432Z,55.8537
2023-05-06T12:00:31.715Z,55.8430
2023-05-06T12:01:31.992Z,56.1059
2023-05-06T12:02:32.763Z,55.5012
2023-05-06T12:03:34.738Z,55.0212
2023-05-06T12:04:34.952Z,55.1669
2023-05-06T12:05:36.414Z,55.6784
2023-05-06T12:07:36.017Z,54.1911
2023-05-06T12:08:36.036Z,53.4692
2023-05-06T12:09:36.117Z,53.6986
2023-05-06T12:10:37.137Z,54.3593
2023-05-06T12:11:37.218Z,53.7048
2023-05-06T12:12:37.963Z,52.3642
2023-05-06T12:13:38.953Z,52.5941
2023-05-06T12:14:39.245Z,50.4505
2023-05-06T12:15:39.832Z,49.1359
2023-05-06T12:16:40.114Z,49.4204
2023-05-06T12:18:44.137Z,49.8309
2023-05-06T12:19:45.399Z,48.8620
2023-05-06T12:20:45.851Z,48.5849
2023-05-06T12:21:45.909Z,48.4959
2023-05-06T12:22:46.321Z,46.6556
2023-05-06T12:23:48.535Z,46.1950
2023-05-06T12:25:36.641Z,46.0683
2023-05-06T12:26:37.770Z,45.7276
2023-05-06T12:27:38.135Z,46.4146
2023-05-06T12:28:38.420Z,45.9937
2023-05-06T12:29:39.392Z,46.0513
2023-05-06T12:30:40.721Z,46.5400
2023-05-06T12:31:41.998Z,45.5383
2023-05-06T12:32:42.096Z,46.2508
2023-05-06T12:33:43.429Z,46.6472